• Join FlightAware (Why Join?)
  • Login
  • US Flag 
08:57AM EDT


 

Airport Tracker/Info


-or-


 

Live Flight TrackerFlight Track Log ✈ EJA122 ✈ 21-Apr-2013 ✈ KBWI - KCHO

Flight Track Log - Related Links

Times and Time Zones

All times are in EDT time to prevent confusion due to time zone crossing. See the EJA122 flight status page for this flight to view local times or setup timezone preferences in your user account.

Time Position Orientation Groundspeed Altitude Reporting Facility
EDT Latitude Longitude Course Direction KTS MPH feet Rate Location/Type
11:24AM 39.1833 -76.7167 211° Southwest 201 231 3,700  Level Potomac TRACON
11:25AM 39.1833 -76.8000 270° West 243 280 7,300 3,300 Climbing Potomac TRACON
11:27AM 39.2100 -76.9444 283° West 269 310 12,400 3,000 Climbing Washington Center
11:27AM 39.2167 -77.0000 279° West 271 312 13,400 1,740 Climbing Potomac TRACON
11:28AM 39.2167 -77.1000 270° West 322 371 14,900 1,260 Climbing Potomac TRACON
11:29AM 39.1667 -77.2000 237° Southwest 356 410 16,000 540 Climbing Potomac TRACON
11:30AM 39.0470 -77.2727 211° Southwest  Level FlightAware Approximate
11:30AM 39.0667 -77.2667 207° Southwest 374 430 16,000  Level Potomac TRACON
11:31AM 38.9833 -77.3333 212° Southwest 379 436 16,000 -420 Level Potomac TRACON
11:32AM 38.8833 -77.3667 195° South 377 434 15,200 -1,260 Descending Potomac TRACON
11:34AM 38.7267 -77.3986 189° South 386 444 12,900 -1,260 Descending Washington Center
11:35AM 38.6325 -77.4361 197° South 381 438 12,000 -720 Descending Washington Center
11:36AM 38.5436 -77.5083 212° Southwest 351 404 11,500 -1,140 Descending Washington Center
11:37AM 38.5089 -77.5975 244° Southwest 307 353 9,800 -1,800 Descending Washington Center
11:38AM 38.4761 -77.6789 243° Southwest 290 334 8,000 -900 Descending Washington Center
11:39AM 38.4394 -77.7600 240° Southwest 273 314 8,000  Level Washington Center
11:40AM 38.4067 -77.8439 244° Southwest 267 307 8,000  Level Washington Center
11:41AM 38.3675 -77.9275 239° Southwest 262 302 8,000 -300 Level Washington Center
11:42AM 38.3325 -78.0111 242° Southwest 262 302 7,400 -1,140 Descending Washington Center
11:43AM 38.2994 -78.0892 242° Southwest 262 302 5,800 -1,200 Descending Washington Center
11:44AM 38.2644 -78.1700 241° Southwest 262 302 5,000 -840 Descending Washington Center
11:45AM 38.2275 -78.2322 233° Southwest 257 296 4,200 -1,080 Descending Washington Center
11:46AM 38.1758 -78.3122 231° Southwest 269 310 2,900 -660 Descending Washington Center
11:48AM 38.0833 -78.4167 222° Southwest 177 204 2,100 -480 Descending Potomac TRACON
11:49AM 38.1000 -78.4667 293° West 145 167 1,400 -660 Descending Potomac TRACON
11:51AM 38.1333 -78.4500 21° North  Level FlightAware Approximate
11:58AM 38.1386 -78.4529 21° North  Level Estimated
11:59AM 38.1333 -78.4500 21° North  Level FlightAware Approximate
12:00PM 38.1386 -78.4529 21° North  Level Estimated